Time;durP1;ratioP1;P1;durP2;ratioP2;P2;SDS_P1;SDS_P2;PMS_P1;PMS_P2;Temp;Humidity;BMP_temperature;BMP_pressure;BME280_temperature;BME280_humidity;BME280_pressure;Samples;Min_cycle;Max_cycle;Signal;HPM_P1;HPM_P2
2024/02/06 00:02:09;;;;;;;11.48;3.60;;;5.30;99.90;;;;;;6060932;23;20046;-83
2024/02/06 00:05:01;;;;;;;9.77;4.03;;;5.30;99.90;;;;;;6035568;23;20089;-84
2024/02/06 00:07:54;;;;;;;16.70;4.50;;;5.20;99.90;;;;;;6057580;23;20026;-84
2024/02/06 00:10:42;;;;;;;;;;;5.20;99.90;;;;;;6056807;23;20082;-80
2024/02/06 00:13:32;;;;;;;18.05;4.00;;;5.20;99.90;;;;;;6057239;23;20055;-84
2024/02/06 00:16:23;;;;;;;9.80;3.53;;;5.10;99.90;;;;;;6059296;23;20130;-81
2024/02/06 00:19:12;;;;;;;13.95;4.20;;;5.20;99.90;;;;;;6058257;23;20055;-81
2024/02/06 00:22:00;;;;;;;12.38;3.72;;;5.20;99.90;;;;;;6021547;23;20033;-80
2024/02/06 00:24:50;;;;;;;12.98;3.63;;;5.10;99.90;;;;;;6039157;23;20033;-79
2024/02/06 00:27:39;;;;;;;12.65;4.32;;;5.00;99.90;;;;;;6065690;23;20022;-79
2024/02/06 00:30:28;;;;;;;12.35;3.70;;;5.00;99.90;;;;;;6070739;23;20027;-81
2024/02/06 00:33:24;;;;;;;11.80;4.53;;;5.00;99.90;;;;;;6057880;23;20878;-83
2024/02/06 00:36:15;;;;;;;12.02;3.90;;;4.80;99.90;;;;;;6068611;23;20042;-80
2024/02/06 00:39:03;;;;;;;16.42;4.13;;;4.60;99.90;;;;;;6072194;23;20038;-81
2024/02/06 00:41:51;;;;;;;10.95;4.13;;;4.60;99.90;;;;;;6044996;23;20129;-81
2024/02/06 00:44:41;;;;;;;13.55;4.35;;;4.50;99.90;;;;;;6057871;23;20323;-82
2024/02/06 00:47:31;;;;;;;;;;;4.60;99.90;;;;;;6038792;23;20027;-81
2024/02/06 00:50:19;;;;;;;13.65;4.00;;;4.50;99.90;;;;;;6062474;23;19941;-80
2024/02/06 00:53:06;;;;;;;10.50;3.63;;;4.30;99.90;;;;;;6039659;23;20078;-82
2024/02/06 00:55:54;;;;;;;14.32;3.65;;;4.10;99.90;;;;;;6060208;23;20034;-80
2024/02/06 00:58:42;;;;;;;13.60;4.38;;;3.90;99.90;;;;;;6041228;23;20552;-81
2024/02/06 01:01:30;;;;;;;10.85;3.75;;;3.70;99.90;;;;;;6061964;23;20042;-80
2024/02/06 01:04:18;;;;;;;14.10;3.63;;;3.60;99.90;;;;;;6064671;23;20023;-80
2024/02/06 01:07:06;;;;;;;15.52;4.63;;;3.50;99.90;;;;;;6065402;23;20026;-82
2024/02/06 01:09:57;;;;;;;18.10;5.18;;;3.50;99.90;;;;;;6074431;23;20027;-79
2024/02/06 01:12:44;;;;;;;16.98;6.13;;;3.40;1.00;;;;;;6052438;23;20046;-83
2024/02/06 01:15:33;;;;;;;15.35;5.82;;;3.30;1.00;;;;;;6054458;23;20238;-80
2024/02/06 01:18:21;;;;;;;20.00;6.82;;;3.20;1.00;;;;;;6073494;23;20154;-81
2024/02/06 01:21:09;;;;;;;17.33;6.05;;;3.10;49.30;;;;;;6075134;23;20270;-81
2024/02/06 01:23:56;;;;;;;16.35;6.97;;;3.00;99.90;;;;;;6063641;23;20137;-80
2024/02/06 01:26:44;;;;;;;18.33;6.55;;;2.90;99.90;;;;;;6059080;23;20031;-84
2024/02/06 01:29:34;;;;;;;20.70;6.78;;;2.80;1.00;;;;;;6062101;23;20037;-79
2024/02/06 01:32:22;;;;;;;14.40;6.22;;;2.70;99.90;;;;;;6064437;23;20054;-81
2024/02/06 01:35:12;;;;;;;18.73;7.20;;;2.60;99.90;;;;;;6040933;23;20030;-80
2024/02/06 01:38:08;;;;;;;15.57;5.88;;;2.50;2.20;;;;;;6040882;23;20109;-82
2024/02/06 01:40:57;;;;;;;21.15;6.30;;;2.50;1.00;;;;;;6072095;23;20125;-81
2024/02/06 01:43:45;;;;;;;13.23;5.57;;;2.40;99.90;;;;;;6071534;23;20612;-77
2024/02/06 01:46:34;;;;;;;14.43;5.07;;;2.40;19.00;;;;;;6072568;23;20111;-78
2024/02/06 01:49:22;;;;;;;10.52;5.10;;;2.30;99.90;;;;;;6051377;23;20022;-82
2024/02/06 01:52:13;;;;;;;18.50;4.95;;;2.30;99.90;;;;;;6076126;23;20023;-82
2024/02/06 01:55:00;;;;;;;17.38;6.05;;;2.20;99.90;;;;;;6048410;23;20370;-81
2024/02/06 01:57:49;;;;;;;12.07;6.40;;;2.10;1.00;;;;;;6069600;23;20027;-81
2024/02/06 02:00:39;;;;;;;21.20;6.13;;;2.10;99.90;;;;;;6049108;23;20058;-78
2024/02/06 02:03:26;;;;;;;14.57;6.15;;;2.00;99.90;;;;;;6084236;23;20026;-78
2024/02/06 02:06:16;;;;;;;9.68;5.22;;;1.90;99.90;;;;;;6073788;23;20179;-79
2024/02/06 02:09:08;;;;;;;22.92;7.43;;;1.80;1.00;;;;;;6064889;23;20027;-77
2024/02/06 02:11:57;;;;;;;11.57;6.03;;;1.70;1.00;;;;;;6074150;23;20027;-82
2024/02/06 02:14:47;;;;;;;22.70;9.20;;;1.60;99.90;;;;;;6048950;23;20296;-79
2024/02/06 02:17:36;;;;;;;30.90;13.33;;;1.70;99.90;;;;;;6059884;23;20410;-80
2024/02/06 02:20:25;;;;;;;25.35;15.25;;;1.70;99.90;;;;;;6059814;23;20042;-83
2024/02/06 02:23:14;;;;;;;24.75;15.82;;;1.80;1.00;;;;;;6058666;23;20082;-81
2024/02/06 02:26:13;;;;;;;28.90;16.08;;;1.80;1.00;;;;;;6076033;23;20027;-81
2024/02/06 02:29:01;;;;;;;30.67;17.25;;;1.70;1.00;;;;;;6056467;23;20042;-81
2024/02/06 02:31:51;;;;;;;38.22;19.52;;;1.70;1.00;;;;;;6075540;23;20051;-78
2024/02/06 02:34:40;;;;;;;42.67;20.27;;;1.70;1.00;;;;;;6049456;23;20041;-82
2024/02/06 02:37:27;;;;;;;47.75;20.77;;;1.60;1.00;;;;;;6064358;23;20035;-80
2024/02/06 02:40:15;;;;;;;38.13;21.40;;;1.70;9.60;;;;;;6059328;23;20209;-79
2024/02/06 02:43:02;;;;;;;43.15;20.60;;;1.50;19.80;;;;;;6083579;23;20192;-80
2024/02/06 02:45:52;;;;;;;38.58;20.42;;;1.50;33.10;;;;;;6074144;23;20030;-80
2024/02/06 02:48:40;;;;;;;43.10;23.30;;;1.40;46.50;;;;;;6076774;23;20042;-79
2024/02/06 02:51:29;;;;;;;44.97;23.38;;;1.40;73.10;;;;;;6072272;23;20022;-78
2024/02/06 02:54:19;;;;;;;43.65;22.00;;;1.40;95.60;;;;;;6071254;23;20034;-83
2024/02/06 02:57:08;;;;;;;48.53;24.23;;;1.40;99.90;;;;;;6044626;23;20082;-79
2024/02/06 02:59:58;;;;;;;44.90;24.10;;;1.40;99.90;;;;;;6060305;23;20045;-82
2024/02/06 03:02:45;;;;;;;39.88;23.25;;;1.30;99.90;;;;;;6038846;23;20086;-83
2024/02/06 03:05:33;;;;;;;47.70;24.63;;;1.30;99.90;;;;;;6038695;23;20027;-83
2024/02/06 03:08:20;;;;;;;44.83;24.35;;;1.20;99.90;;;;;;6060506;23;20048;-81
2024/02/06 03:11:09;;;;;;;48.38;25.55;;;1.20;99.90;;;;;;6059571;23;20110;-82
2024/02/06 03:13:56;;;;;;;60.83;28.23;;;1.20;99.90;;;;;;6041391;23;20502;-82
2024/02/06 03:16:43;;;;;;;58.00;29.58;;;1.20;99.90;;;;;;6061800;23;20042;-81
2024/02/06 03:19:32;;;;;;;102.22;32.20;;;1.20;99.90;;;;;;6064243;23;20126;-80
2024/02/06 03:22:22;;;;;;;88.15;33.65;;;1.20;99.90;;;;;;6059548;23;20055;-83
2024/02/06 03:25:10;;;;;;;95.75;33.40;;;1.20;99.90;;;;;;6061806;23;20031;-81
2024/02/06 03:27:57;;;;;;;75.45;30.83;;;1.20;99.90;;;;;;6040966;23;20042;-81
2024/02/06 03:30:46;;;;;;;345.92;43.60;;;1.10;99.90;;;;;;6041021;23;20077;-82
2024/02/06 03:33:35;;;;;;;266.00;42.20;;;1.10;99.90;;;;;;6071964;23;20051;-83
2024/02/06 03:36:23;;;;;;;490.50;47.78;;;1.10;99.90;;;;;;6050059;23;20403;-81
2024/02/06 03:39:12;;;;;;;114.18;35.17;;;1.10;99.90;;;;;;6061317;23;20370;-82
2024/02/06 03:41:59;;;;;;;143.00;38.13;;;1.10;99.90;;;;;;6060796;23;20058;-81
2024/02/06 03:44:49;;;;;;;177.98;39.15;;;1.10;99.90;;;;;;6071207;23;20023;-80
2024/02/06 03:47:37;;;;;;;127.35;37.55;;;1.10;99.90;;;;;;6061689;23;20022;-82
2024/02/06 03:50:25;;;;;;;131.50;38.03;;;1.10;99.90;;;;;;6059324;23;20045;-82
2024/02/06 03:53:13;;;;;;;147.15;38.53;;;1.10;99.90;;;;;;6059491;23;20027;-80
2024/02/06 03:56:01;;;;;;;118.68;36.78;;;1.10;99.90;;;;;;6061213;23;20026;-84
2024/02/06 03:58:48;;;;;;;87.50;36.33;;;1.00;99.90;;;;;;6058458;23;20086;-82
2024/02/06 04:01:39;;;;;;;86.15;36.22;;;1.00;99.90;;;;;;6041922;23;20027;-80
2024/02/06 04:04:27;;;;;;;75.22;34.22;;;0.90;99.90;;;;;;6061798;23;20019;-80
2024/02/06 04:07:15;;;;;;;79.78;31.85;;;0.80;99.90;;;;;;6061494;23;20046;-83
2024/02/06 04:10:07;;;;;;;78.65;36.20;;;0.80;99.90;;;;;;6061708;23;20506;-84
2024/02/06 04:12:55;;;;;;;77.30;35.27;;;0.70;99.90;;;;;;6040910;23;20027;-82
2024/02/06 04:15:43;;;;;;;74.55;32.97;;;0.70;99.90;;;;;;6050932;23;20435;-80
2024/02/06 04:18:32;;;;;;;91.57;35.58;;;0.70;99.90;;;;;;6069839;23;20049;-81
2024/02/06 04:21:21;;;;;;;88.60;34.47;;;0.70;99.90;;;;;;6045857;23;20026;-84
2024/02/06 04:24:08;;;;;;;88.30;37.25;;;0.60;99.90;;;;;;6058848;23;20078;-79
2024/02/06 04:26:56;;;;;;;746.88;71.22;;;0.60;99.90;;;;;;6072622;23;20086;-84
2024/02/06 04:29:43;;;;;;;82.63;35.97;;;0.60;99.90;;;;;;6043183;23;20038;-82
2024/02/06 04:32:32;;;;;;;89.30;35.28;;;0.60;99.90;;;;;;6059694;23;20035;-83
2024/02/06 04:35:20;;;;;;;89.15;37.90;;;0.50;99.90;;;;;;6041273;23;20037;-80
2024/02/06 04:38:07;;;;;;;88.65;37.13;;;0.40;99.90;;;;;;6061156;23;20018;-82
2024/02/06 04:40:57;;;;;;;94.03;37.63;;;0.40;99.90;;;;;;6063460;23;20129;-83
2024/02/06 04:43:47;;;;;;;93.72;36.78;;;0.30;99.90;;;;;;6065781;23;20030;-82
2024/02/06 04:46:35;;;;;;;84.68;36.17;;;0.30;99.90;;;;;;6065386;23;20047;-83
2024/02/06 04:49:22;;;;;;;104.68;39.70;;;0.30;99.90;;;;;;6064550;23;20023;-81
2024/02/06 04:52:11;;;;;;;110.28;37.80;;;0.20;99.90;;;;;;6064222;23;20033;-83
2024/02/06 04:55:01;;;;;;;205.73;44.85;;;0.20;99.90;;;;;;6067354;23;20395;-84
2024/02/06 04:57:48;;;;;;;616.72;64.25;;;0.10;99.90;;;;;;6080460;23;20030;-82
2024/02/06 05:00:36;;;;;;;376.38;50.28;;;0.10;99.90;;;;;;6036307;23;20113;-82
2024/02/06 05:03:24;;;;;;;177.32;43.83;;;0.00;99.90;;;;;;6050369;23;20035;-80
2024/02/06 05:06:12;;;;;;;118.13;40.67;;;0.00;99.90;;;;;;6074616;23;20023;-81
2024/02/06 05:09:01;;;;;;;308.40;45.65;;;0.00;99.90;;;;;;6065424;23;20547;-81
2024/02/06 05:11:48;;;;;;;94.03;39.78;;;0.10;99.90;;;;;;6062866;23;20045;-80
2024/02/06 05:14:36;;;;;;;99.82;41.03;;;0.10;99.90;;;;;;6044340;23;20031;-82
2024/02/06 05:17:27;;;;;;;98.47;41.10;;;0.20;99.90;;;;;;6062178;23;20067;-83
2024/02/06 05:20:15;;;;;;;97.80;41.75;;;0.40;99.90;;;;;;6064596;23;20142;-82
2024/02/06 05:23:03;;;;;;;97.28;38.30;;;0.50;99.90;;;;;;6071909;23;20087;-79
2024/02/06 05:25:51;;;;;;;89.40;38.60;;;0.60;99.90;;;;;;6052922;23;20055;-82
2024/02/06 05:28:40;;;;;;;95.20;41.20;;;0.80;99.90;;;;;;6065616;23;20078;-83
2024/02/06 05:31:28;;;;;;;79.93;36.55;;;0.80;99.90;;;;;;6063283;23;20031;-83
2024/02/06 05:34:17;;;;;;;83.57;36.78;;;1.00;99.90;;;;;;6063589;23;20026;-82
2024/02/06 05:37:06;;;;;;;87.30;38.10;;;1.10;99.90;;;;;;6060570;23;20086;-82
2024/02/06 05:39:54;;;;;;;86.82;38.00;;;1.30;99.90;;;;;;6075361;23;20031;-77
2024/02/06 05:42:41;;;;;;;93.72;38.70;;;1.40;99.90;;;;;;6051315;23;20027;-79
2024/02/06 05:45:30;;;;;;;94.78;41.67;;;1.50;99.90;;;;;;6052225;23;20130;-80
2024/02/06 05:48:20;;;;;;;89.38;37.20;;;1.50;99.90;;;;;;6046048;23;20027;-80
2024/02/06 05:51:10;;;;;;;88.43;38.83;;;1.50;99.90;;;;;;6071625;23;20074;-81
2024/02/06 05:54:00;;;;;;;92.97;40.30;;;1.60;99.90;;;;;;6049062;23;20031;-79
2024/02/06 05:56:48;;;;;;;84.47;37.47;;;1.50;99.90;;;;;;6061220;23;20033;-79
2024/02/06 05:59:35;;;;;;;73.78;31.27;;;1.50;99.90;;;;;;6061479;23;20046;-80
2024/02/06 06:02:23;;;;;;;71.47;31.38;;;1.60;99.90;;;;;;6040630;23;20041;-81
2024/02/06 06:05:12;;;;;;;66.93;33.05;;;1.80;99.90;;;;;;6062605;23;20030;-81
2024/02/06 06:08:00;;;;;;;67.28;32.65;;;1.80;99.90;;;;;;6038968;23;20760;-79
2024/02/06 06:10:49;;;;;;;56.28;26.55;;;1.70;99.90;;;;;;6055372;23;20037;-77
2024/02/06 06:13:37;;;;;;;52.78;27.73;;;1.80;99.90;;;;;;6079591;23;20053;-81
2024/02/06 06:16:29;;;;;;;51.83;25.10;;;1.90;99.90;;;;;;6075201;23;20058;-86
2024/02/06 06:19:20;;;;;;;47.17;23.00;;;2.00;99.90;;;;;;6042231;23;20035;-79
2024/02/06 06:22:08;;;;;;;41.33;21.00;;;2.10;99.90;;;;;;6063373;23;20078;-77
2024/02/06 06:24:56;;;;;;;34.20;18.08;;;2.30;99.90;;;;;;6051876;23;20086;-83
2024/02/06 06:27:44;;;;;;;31.73;17.20;;;2.40;99.90;;;;;;6057378;23;20027;-83
2024/02/06 06:30:31;;;;;;;24.77;13.55;;;2.40;99.90;;;;;;6064655;23;20441;-81
2024/02/06 06:33:19;;;;;;;25.67;12.07;;;2.50;99.90;;;;;;6072496;23;20117;-84
2024/02/06 06:36:10;;;;;;;15.43;9.85;;;2.60;99.90;;;;;;6054633;23;20031;-83
2024/02/06 06:38:58;;;;;;;20.02;10.07;;;2.70;99.90;;;;;;6059196;23;20117;-85
2024/02/06 06:41:47;;;;;;;15.68;9.18;;;2.70;99.90;;;;;;6038729;23;20038;-82
2024/02/06 06:44:37;;;;;;;16.63;8.50;;;2.80;99.90;;;;;;6061811;23;20058;-82
2024/02/06 06:47:29;;;;;;;13.80;9.00;;;2.90;99.90;;;;;;6057960;23;20074;-79
2024/02/06 06:50:17;;;;;;;19.52;9.48;;;2.90;99.90;;;;;;6059143;23;20034;-80
2024/02/06 06:53:06;;;;;;;17.80;8.80;;;2.90;99.90;;;;;;6061183;23;20031;-79
2024/02/06 06:56:01;;;;;;;15.63;8.63;;;2.90;99.90;;;;;;6056650;23;20031;-80
2024/02/06 06:58:54;;;;;;;12.80;8.32;;;3.00;99.90;;;;;;6058170;23;20097;-79
2024/02/06 07:01:42;;;;;;;17.95;8.02;;;3.00;99.90;;;;;;6059519;23;20059;-78
2024/02/06 07:04:30;;;;;;;18.27;9.45;;;3.10;99.90;;;;;;6038193;23;20090;-80
2024/02/06 07:07:18;;;;;;;15.18;8.25;;;3.20;99.90;;;;;;6036344;23;20162;-77
2024/02/06 07:10:06;;;;;;;16.23;8.93;;;3.20;99.90;;;;;;6064030;23;20143;-75
2024/02/06 07:12:53;;;;;;;17.83;8.70;;;3.20;99.90;;;;;;6073850;23;20031;-76
2024/02/06 07:15:43;;;;;;;18.80;8.35;;;3.20;99.90;;;;;;6079044;23;20033;-75
2024/02/06 07:18:31;;;;;;;18.15;8.73;;;3.30;99.90;;;;;;6081276;23;20104;-77
2024/02/06 07:21:21;;;;;;;13.45;7.82;;;3.30;99.90;;;;;;6075114;23;20034;-77
2024/02/06 07:24:09;;;;;;;17.23;9.13;;;3.40;99.90;;;;;;6077890;23;20046;-76
2024/02/06 07:27:00;;;;;;;18.83;8.35;;;3.40;99.90;;;;;;6077707;23;20027;-79
2024/02/06 07:30:05;;;;;;;18.08;7.50;;;3.50;99.90;;;;;;6068862;23;20034;-78
2024/02/06 07:32:54;;;;;;;14.57;8.15;;;3.60;99.90;;;;;;6037773;23;20222;-77
2024/02/06 07:35:44;;;;;;;13.18;7.65;;;3.60;99.90;;;;;;6034115;23;20458;-78
2024/02/06 07:38:31;;;;;;;16.10;8.18;;;3.70;99.90;;;;;;6054054;23;20058;-77
2024/02/06 07:41:19;;;;;;;14.68;7.93;;;3.70;99.90;;;;;;6031852;23;20061;-76
2024/02/06 07:44:07;;;;;;;18.42;8.27;;;3.70;99.90;;;;;;6052530;23;20146;-75
2024/02/06 07:46:55;;;;;;;17.40;8.38;;;3.70;99.90;;;;;;6054406;23;20057;-79
2024/02/06 07:49:45;;;;;;;13.77;8.32;;;3.70;99.90;;;;;;6012428;23;20027;-79
2024/02/06 07:52:36;;;;;;;17.52;8.98;;;3.80;99.90;;;;;;6036329;23;20038;-78
2024/02/06 07:55:25;;;;;;;17.52;8.63;;;3.80;99.90;;;;;;6061301;23;20031;-79
2024/02/06 07:58:13;;;;;;;14.77;8.27;;;3.80;99.90;;;;;;6035461;23;20070;-78
2024/02/06 08:01:06;;;;;;;18.80;7.72;;;3.80;99.90;;;;;;6054844;23;20030;-78
2024/02/06 08:03:54;;;;;;;16.35;8.13;;;3.80;99.90;;;;;;6064262;23;20026;-77
2024/02/06 08:06:43;;;;;;;17.33;8.23;;;3.80;99.90;;;;;;6056638;23;20022;-78
2024/02/06 08:09:30;;;;;;;13.00;7.95;;;3.90;99.90;;;;;;6056097;23;20022;-78
2024/02/06 08:12:18;;;;;;;16.15;8.13;;;3.90;99.90;;;;;;6069826;23;20027;-77
2024/02/06 08:15:09;;;;;;;14.95;8.50;;;3.90;99.90;;;;;;6064063;23;20063;-83
2024/02/06 08:18:00;;;;;;;18.90;8.43;;;3.90;99.90;;;;;;6080289;23;20027;-83
2024/02/06 08:20:48;;;;;;;15.80;8.40;;;4.00;99.90;;;;;;6060205;23;20183;-81
2024/02/06 08:23:35;;;;;;;15.00;8.43;;;4.00;99.90;;;;;;6055854;23;20022;-79
2024/02/06 08:26:23;;;;;;;17.98;7.72;;;4.00;99.90;;;;;;6041392;23;20105;-79
2024/02/06 08:29:10;;;;;;;11.35;6.47;;;4.00;99.90;;;;;;6057951;23;20611;-80
2024/02/06 08:31:58;;;;;;;17.15;7.97;;;4.10;99.90;;;;;;6036970;23;20055;-80
2024/02/06 08:34:45;;;;;;;25.17;8.93;;;4.10;99.90;;;;;;6060658;23;20082;-77
2024/02/06 08:37:36;;;;;;;17.52;8.23;;;4.20;99.90;;;;;;6075851;23;20082;-77
2024/02/06 08:40:24;;;;;;;14.15;7.53;;;4.20;99.90;;;;;;6075987;23;20035;-78
2024/02/06 08:43:13;;;;;;;13.32;7.50;;;4.20;99.90;;;;;;6057171;23;20031;-78
2024/02/06 08:46:06;;;;;;;17.58;7.78;;;4.30;99.90;;;;;;6069820;23;20026;-83
2024/02/06 08:48:54;;;;;;;14.07;7.78;;;4.30;99.90;;;;;;6039593;23;20031;-81
2024/02/06 08:51:44;;;;;;;16.50;7.65;;;4.40;99.90;;;;;;6061098;23;20022;-79
2024/02/06 08:54:31;;;;;;;15.00;7.30;;;4.40;99.90;;;;;;6066606;23;20027;-82
2024/02/06 08:57:21;;;;;;;11.95;7.05;;;4.40;99.90;;;;;;6049115;23;20027;-78
2024/02/06 09:00:11;;;;;;;12.30;6.65;;;4.50;99.90;;;;;;6069553;23;20031;-79
2024/02/06 09:03:08;;;;;;;13.25;7.45;;;4.50;99.90;;;;;;6058990;23;20042;-80
2024/02/06 09:05:59;;;;;;;11.93;6.85;;;4.60;99.90;;;;;;6059362;23;20023;-80
2024/02/06 09:08:47;;;;;;;13.35;6.75;;;4.70;99.90;;;;;;6066545;23;20415;-79
2024/02/06 09:11:41;;;;;;;11.80;5.88;;;4.80;99.90;;;;;;6061784;23;20614;-80
2024/02/06 09:14:29;;;;;;;13.35;5.40;;;4.80;99.90;;;;;;6061099;23;20027;-80
2024/02/06 09:17:23;;;;;;;12.00;6.07;;;4.90;99.90;;;;;;6041631;23;20122;-80
2024/02/06 09:20:20;;;;;;;10.73;5.57;;;5.10;99.90;;;;;;6055150;23;20035;-79
2024/02/06 09:23:07;;;;;;;9.55;5.18;;;5.20;99.90;;;;;;6055645;23;20599;-78
2024/02/06 09:25:55;;;;;;;11.85;5.40;;;5.20;99.90;;;;;;6058253;23;20128;-77
2024/02/06 09:28:43;;;;;;;8.25;5.47;;;5.30;99.90;;;;;;6035287;23;20109;-77
2024/02/06 09:31:32;;;;;;;8.93;4.80;;;5.40;99.90;;;;;;6036431;23;20027;-78
2024/02/06 09:34:21;;;;;;;7.28;3.95;;;5.50;99.90;;;;;;6059728;23;20042;-79
2024/02/06 09:37:09;;;;;;;6.80;4.10;;;5.70;99.90;;;;;;6040399;23;20082;-77
2024/02/06 09:39:59;;;;;;;6.18;3.40;;;5.80;99.90;;;;;;6070259;23;20651;-78
2024/02/06 09:42:48;;;;;;;5.80;3.35;;;5.90;99.90;;;;;;6060423;23;20154;-77
2024/02/06 09:45:39;;;;;;;6.80;2.97;;;6.00;99.90;;;;;;6077179;23;20047;-77
2024/02/06 09:48:29;;;;;;;4.80;2.22;;;6.20;99.90;;;;;;6048793;23;20400;-78
2024/02/06 09:51:16;;;;;;;5.70;2.00;;;6.30;99.90;;;;;;6071591;23;20019;-79
2024/02/06 09:54:07;;;;;;;4.90;2.70;;;6.40;99.90;;;;;;6063285;23;20023;-79
2024/02/06 09:56:56;;;;;;;3.60;2.10;;;6.50;99.90;;;;;;6040226;23;20502;-80
2024/02/06 09:59:45;;;;;;;5.22;2.53;;;6.40;99.90;;;;;;6059449;23;20023;-80
2024/02/06 10:02:35;;;;;;;3.47;2.25;;;6.50;99.90;;;;;;6055577;23;20086;-78
2024/02/06 10:05:35;;;;;;;4.93;2.22;;;6.50;99.90;;;;;;6042472;23;20106;-79
2024/02/06 10:08:24;;;;;;;2.90;2.17;;;6.60;99.90;;;;;;6054578;23;20026;-80
2024/02/06 10:11:13;;;;;;;3.95;1.85;;;6.60;99.90;;;;;;6055964;23;20031;-79
2024/02/06 10:14:04;;;;;;;5.32;1.95;;;6.60;99.90;;;;;;6039731;23;20026;-80
2024/02/06 10:16:54;;;;;;;2.50;1.90;;;6.60;99.90;;;;;;6057100;23;20497;-80
2024/02/06 10:19:42;;;;;;;6.50;2.70;;;6.60;99.90;;;;;;6018813;23;20031;-76
2024/02/06 10:22:30;;;;;;;4.88;1.98;;;6.70;99.90;;;;;;6056734;23;20027;-80
2024/02/06 10:25:19;;;;;;;3.13;1.95;;;6.70;99.90;;;;;;6059785;23;20399;-82
2024/02/06 10:28:06;;;;;;;4.55;2.67;;;6.70;99.90;;;;;;6059323;23;20052;-79
2024/02/06 10:31:12;;;;;;;4.35;2.33;;;6.60;99.90;;;;;;6059119;23;20074;-79
2024/02/06 10:34:11;;;;;;;3.55;2.55;;;6.70;99.90;;;;;;6067179;23;20082;-79
2024/02/06 10:37:00;;;;;;;5.80;2.10;;;6.80;99.90;;;;;;6071211;23;20031;-80
2024/02/06 10:39:48;;;;;;;2.90;2.33;;;6.80;99.90;;;;;;6038946;23;20031;-79
2024/02/06 10:42:36;;;;;;;4.55;2.15;;;6.80;99.90;;;;;;6040869;23;20484;-79
2024/02/06 10:45:44;;;;;;;5.13;2.33;;;6.90;99.90;;;;;;6042621;23;20027;-78
2024/02/06 10:48:37;;;;;;;4.63;2.75;;;6.80;99.90;;;;;;6069944;23;20623;-76
2024/02/06 10:51:28;;;;;;;6.28;2.75;;;6.80;99.90;;;;;;6072709;23;20035;-79
2024/02/06 10:54:21;;;;;;;8.15;4.22;;;6.90;99.90;;;;;;6075019;23;20102;-77
2024/02/06 10:57:12;;;;;;;5.95;2.70;;;6.90;99.90;;;;;;6070443;23;20257;-80
2024/02/06 11:00:15;;;;;;;9.80;4.88;;;6.90;99.90;;;;;;6060087;23;20045;-80
2024/02/06 11:03:11;;;;;;;13.63;5.35;;;7.00;99.90;;;;;;6072293;23;20105;-81
2024/02/06 11:06:08;;;;;;;5.45;2.92;;;7.10;99.90;;;;;;6051987;23;20090;-80
2024/02/06 11:09:06;;;;;;;7.32;3.60;;;7.10;99.90;;;;;;6069446;23;20042;-80
2024/02/06 11:11:58;;;;;;;8.80;3.70;;;7.10;99.90;;;;;;6066127;23;20027;-80
2024/02/06 11:14:48;;;;;;;6.28;3.05;;;7.10;99.90;;;;;;6058540;23;20485;-82
2024/02/06 11:17:40;;;;;;;5.45;2.95;;;7.10;99.90;;;;;;6060869;23;20075;-79
2024/02/06 11:20:33;;;;;;;5.45;2.72;;;7.20;99.90;;;;;;6060535;23;20023;-81
2024/02/06 11:23:24;;;;;;;5.32;2.60;;;7.20;99.90;;;;;;6060821;23;20022;-80
2024/02/06 11:26:13;;;;;;;7.60;2.78;;;7.20;99.90;;;;;;6044672;23;20508;-83
2024/02/06 11:29:09;;;;;;;7.00;2.80;;;7.20;99.90;;;;;;6075326;23;20043;-78
2024/02/06 11:31:57;;;;;;;6.95;2.80;;;7.20;99.90;;;;;;6079296;23;20026;-80
2024/02/06 11:34:54;;;;;;;7.70;2.72;;;7.30;99.90;;;;;;6079499;23;20029;-78
2024/02/06 11:37:53;;;;;;;9.43;2.75;;;7.30;99.90;;;;;;6071784;23;20042;-80
2024/02/06 11:40:45;;;;;;;;;;;7.40;99.90;;;;;;6066347;23;20114;-82
2024/02/06 11:43:33;;;;;;;7.15;3.00;;;7.50;99.90;;;;;;6060701;23;19928;-77
2024/02/06 11:46:23;;;;;;;12.63;3.05;;;7.60;99.90;;;;;;6054724;23;20023;-80
2024/02/06 11:49:12;;;;;;;8.50;2.42;;;7.60;99.90;;;;;;6056401;23;20033;-75
2024/02/06 11:52:00;;;;;;;11.52;2.53;;;7.70;99.90;;;;;;6057786;23;20459;-80
2024/02/06 11:54:49;;;;;;;10.52;2.75;;;7.70;99.90;;;;;;6061812;23;20041;-79
2024/02/06 11:57:38;;;;;;;7.88;2.42;;;7.70;99.90;;;;;;6049601;23;20031;-79
2024/02/06 12:00:29;;;;;;;14.38;2.40;;;7.70;99.90;;;;;;6071244;23;20031;-79
2024/02/06 12:03:22;;;;;;;11.30;3.00;;;7.80;99.90;;;;;;6063366;23;20030;-79
2024/02/06 12:06:21;;;;;;;5.88;2.47;;;7.70;99.90;;;;;;6038026;23;20403;-78
2024/02/06 12:09:14;;;;;;;10.68;2.35;;;7.80;99.90;;;;;;6071012;23;20051;-79
2024/02/06 12:12:12;;;;;;;6.90;2.70;;;7.80;99.90;;;;;;6053665;23;20019;-80
2024/02/06 12:15:08;;;;;;;7.40;2.50;;;7.80;99.90;;;;;;6063845;23;20026;-79
2024/02/06 12:17:57;;;;;;;10.65;2.35;;;7.80;99.90;;;;;;6062004;23;20693;-80
2024/02/06 12:20:47;;;;;;;6.78;2.75;;;7.80;99.90;;;;;;6060170;23;20030;-78
2024/02/06 12:23:36;;;;;;;6.22;2.42;;;7.80;99.90;;;;;;6061461;23;20031;-79
2024/02/06 12:26:25;;;;;;;9.75;2.42;;;7.90;99.90;;;;;;6070684;23;20027;-80
2024/02/06 12:29:13;;;;;;;4.63;2.38;;;7.90;99.90;;;;;;6071464;23;20051;-77
2024/02/06 12:32:07;;;;;;;10.30;2.78;;;7.90;99.90;;;;;;6071159;23;20051;-79
2024/02/06 12:34:55;;;;;;;8.38;2.50;;;7.90;99.90;;;;;;6066702;23;20054;-81
2024/02/06 12:37:50;;;;;;;6.28;2.63;;;8.00;99.90;;;;;;6064122;23;20031;-80
2024/02/06 12:40:43;;;;;;;6.80;2.17;;;8.00;99.90;;;;;;6058598;23;20026;-80
2024/02/06 12:43:31;;;;;;;7.10;2.53;;;8.10;99.90;;;;;;6043140;23;20066;-81
2024/02/06 12:46:20;;;;;;;9.27;2.58;;;8.10;99.90;;;;;;6063177;23;20086;-81
2024/02/06 12:49:07;;;;;;;8.55;2.85;;;8.30;99.90;;;;;;6046017;23;20026;-78
2024/02/06 12:51:58;;;;;;;7.57;2.85;;;8.40;99.90;;;;;;6066405;23;20106;-79
2024/02/06 12:54:46;;;;;;;4.95;2.03;;;8.60;99.90;;;;;;6077291;23;20042;-82
2024/02/06 12:57:34;;;;;;;6.05;2.50;;;8.90;99.90;;;;;;6078676;23;20041;-79
2024/02/06 13:00:24;;;;;;;10.38;2.92;;;8.80;99.90;;;;;;6047580;23;20042;-77
2024/02/06 13:03:15;;;;;;;7.45;2.53;;;8.70;99.90;;;;;;6080330;23;20046;-79
2024/02/06 13:06:06;;;;;;;4.93;2.13;;;8.70;99.90;;;;;;6050968;23;20026;-78
2024/02/06 13:08:55;;;;;;;8.15;2.58;;;8.70;99.90;;;;;;6044907;23;20030;-82
2024/02/06 13:11:43;;;;;;;5.95;2.20;;;8.60;99.90;;;;;;6022852;23;20339;-79
2024/02/06 13:14:30;;;;;;;8.40;2.92;;;8.70;99.90;;;;;;6060101;23;20082;-79
2024/02/06 13:17:21;;;;;;;9.95;2.15;;;8.50;99.90;;;;;;6059844;23;20453;-78
2024/02/06 13:20:12;;;;;;;6.32;2.72;;;8.30;99.90;;;;;;6059309;23;20327;-78
2024/02/06 13:23:09;;;;;;;7.57;2.80;;;8.20;99.90;;;;;;6059078;23;20490;-80
2024/02/06 13:25:59;;;;;;;5.32;2.60;;;8.10;99.90;;;;;;6059048;23;20078;-80
2024/02/06 13:28:58;;;;;;;6.22;2.67;;;8.00;99.90;;;;;;6059896;23;20033;-79
2024/02/06 13:31:50;;;;;;;4.07;2.22;;;8.00;99.90;;;;;;6063458;23;20026;-78
2024/02/06 13:34:38;;;;;;;4.20;2.10;;;8.00;99.90;;;;;;6055051;23;20011;-80
2024/02/06 13:37:35;;;;;;;5.13;2.08;;;7.90;99.90;;;;;;6062779;23;20034;-82
2024/02/06 13:40:37;;;;;;;5.90;2.70;;;7.90;99.90;;;;;;6040869;23;20122;-81
2024/02/06 13:43:41;;;;;;;6.68;2.72;;;7.80;99.90;;;;;;6041182;23;20105;-79
2024/02/06 13:46:38;;;;;;;8.38;3.13;;;7.70;99.90;;;;;;6058078;23;20033;-79
2024/02/06 13:49:37;;;;;;;30.70;16.00;;;7.60;99.90;;;;;;6061240;23;20023;-81
2024/02/06 13:52:25;;;;;;;6.07;2.83;;;7.50;99.90;;;;;;6043245;23;20027;-80
2024/02/06 13:55:19;;;;;;;4.53;2.20;;;7.40;99.90;;;;;;6062925;23;20110;-80
2024/02/06 13:58:13;;;;;;;5.63;2.25;;;7.30;99.90;;;;;;6062356;23;20031;-80
2024/02/06 14:01:08;;;;;;;6.60;2.50;;;7.30;99.90;;;;;;6060990;23;20045;-79
2024/02/06 14:04:03;;;;;;;6.05;2.50;;;7.20;99.90;;;;;;6041441;23;20030;-80
2024/02/06 14:07:19;;;;;;;5.35;2.33;;;7.30;99.90;;;;;;6065975;23;20074;-77
2024/02/06 14:10:54;;;;;;;3.60;2.13;;;7.40;99.90;;;;;;6075006;23;20027;-79
2024/02/06 14:13:49;;;;;;;7.63;2.30;;;7.50;99.90;;;;;;6078380;23;20033;-79
2024/02/06 14:16:37;;;;;;;5.75;2.65;;;7.40;99.90;;;;;;6053618;23;20037;-77
2024/02/06 14:19:26;;;;;;;7.60;2.60;;;7.40;99.90;;;;;;6062682;23;20037;-79
2024/02/06 14:22:16;;;;;;;8.07;2.30;;;7.50;99.90;;;;;;6037267;23;20030;-83
2024/02/06 14:25:05;;;;;;;4.38;3.00;;;7.50;99.90;;;;;;6037951;23;20493;-77
2024/02/06 14:27:53;;;;;;;3.47;1.90;;;7.60;99.90;;;;;;6058541;23;20043;-78
2024/02/06 14:30:42;;;;;;;11.20;2.53;;;7.90;99.90;;;;;;6043948;23;20030;-78
2024/02/06 14:33:32;;;;;;;4.07;1.90;;;8.20;99.90;;;;;;6061508;23;20090;-78
2024/02/06 14:36:20;;;;;;;6.88;2.00;;;8.30;99.90;;;;;;6048753;23;20022;-76
2024/02/06 14:39:09;;;;;;;9.95;2.38;;;8.20;99.90;;;;;;6067993;23;20109;-81
2024/02/06 14:41:59;;;;;;;5.68;2.40;;;8.30;99.90;;;;;;6050178;23;20034;-81
2024/02/06 14:44:46;;;;;;;6.10;1.90;;;8.30;99.90;;;;;;6060850;23;20030;-79
2024/02/06 14:47:43;;;;;;;4.43;2.08;;;8.20;99.90;;;;;;6059436;23;20026;-79